Time;durP1;ratioP1;P1;durP2;ratioP2;P2;SDS_P1;SDS_P2;PMS_P1;PMS_P2;Temp;Humidity;BMP_temperature;BMP_pressure;BME280_temperature;BME280_humidity;BME280_pressure;Samples;Min_cycle;Max_cycle;Signal;HPM_P1;HPM_P2
2021/01/09 00:00:58;;;;;;;19.38;13.10;;;1.90;93.10;;;;;;4974595;28;20255;-74
2021/01/09 00:03:25;;;;;;;22.38;13.15;;;1.80;92.90;;;;;;4956457;28;20297;-77
2021/01/09 00:05:52;;;;;;;23.83;13.27;;;1.80;92.70;;;;;;4967073;28;20629;-75
2021/01/09 00:08:18;;;;;;;23.25;14.30;;;1.80;92.20;;;;;;4974722;28;20208;-75
2021/01/09 00:10:45;;;;;;;22.63;13.13;;;1.90;92.20;;;;;;4976670;28;20230;-76
2021/01/09 00:13:11;;;;;;;20.05;11.80;;;1.90;92.20;;;;;;4976713;28;20495;-74
2021/01/09 00:15:38;;;;;;;21.55;13.40;;;1.80;92.10;;;;;;4977369;28;20220;-74
2021/01/09 00:18:04;;;;;;;21.48;12.30;;;1.80;92.20;;;;;;4978933;28;20233;-76
2021/01/09 00:20:31;;;;;;;22.30;13.82;;;1.80;92.20;;;;;;4979514;28;20229;-77
2021/01/09 00:22:58;;;;;;;24.20;14.45;;;1.80;92.20;;;;;;4990754;28;20217;-81
2021/01/09 00:25:25;;;;;;;23.98;14.20;;;1.80;92.20;;;;;;4979994;28;20221;-80
2021/01/09 00:27:51;;;;;;;21.80;13.40;;;1.80;92.20;;;;;;4980370;28;20210;-80
2021/01/09 00:30:20;;;;;;;21.13;13.45;;;1.80;92.20;;;;;;4995941;28;20308;-78
2021/01/09 00:32:46;;;;;;;26.30;13.55;;;1.80;92.20;;;;;;4992537;28;20248;-77
2021/01/09 00:35:12;;;;;;;24.83;14.45;;;1.80;92.20;;;;;;4962035;28;20565;-77
2021/01/09 00:37:39;;;;;;;22.08;14.50;;;1.80;92.20;;;;;;4962614;28;20301;-76
2021/01/09 00:40:07;;;;;;;20.33;12.00;;;1.80;92.00;;;;;;4995964;28;20231;-74
2021/01/09 00:42:38;;;;;;;22.17;13.75;;;1.80;92.10;;;;;;4988902;28;20308;-75
2021/01/09 00:45:06;;;;;;;21.50;13.70;;;1.80;92.20;;;;;;4980928;28;20205;-77
2021/01/09 00:47:32;;;;;;;23.27;14.60;;;1.80;92.20;;;;;;4982585;28;20296;-77
2021/01/09 00:49:58;;;;;;;23.35;13.63;;;1.80;92.20;;;;;;4970251;28;20232;-75
2021/01/09 00:52:25;;;;;;;23.08;14.63;;;1.80;92.20;;;;;;4967105;28;20297;-76
2021/01/09 00:54:52;;;;;;;24.15;14.57;;;1.80;92.20;;;;;;4957917;28;20206;-75
2021/01/09 00:57:19;;;;;;;22.50;13.75;;;1.80;92.20;;;;;;4957410;28;20214;-74
2021/01/09 00:59:48;;;;;;;22.17;13.27;;;1.80;92.20;;;;;;4971562;28;20249;-75
2021/01/09 01:02:14;;;;;;;21.63;13.68;;;1.80;92.20;;;;;;4963500;28;20893;-76
2021/01/09 01:04:41;;;;;;;23.27;14.05;;;1.90;92.20;;;;;;4959404;28;20212;-76
2021/01/09 01:07:07;;;;;;;21.27;13.15;;;1.90;92.20;;;;;;4972371;28;20209;-76
2021/01/09 01:09:33;;;;;;;23.48;14.25;;;1.90;92.20;;;;;;4980509;28;20276;-76
2021/01/09 01:12:02;;;;;;;20.60;13.18;;;1.90;92.20;;;;;;4971785;28;20289;-76
2021/01/09 01:14:29;;;;;;;25.08;14.82;;;1.90;92.20;;;;;;4959168;28;20568;-76
2021/01/09 01:16:55;;;;;;;23.58;14.32;;;2.00;91.90;;;;;;4965482;28;20584;-75
2021/01/09 01:19:22;;;;;;;22.42;13.45;;;1.90;91.40;;;;;;4976478;28;20285;-73
2021/01/09 01:21:48;;;;;;;26.25;13.93;;;1.90;91.50;;;;;;4970140;28;20214;-76
2021/01/09 01:24:15;;;;;;;26.45;15.07;;;1.80;91.20;;;;;;4957116;28;20802;-74
2021/01/09 01:26:41;;;;;;;25.10;14.95;;;1.90;91.40;;;;;;4962417;28;20249;-76
2021/01/09 01:29:08;;;;;;;21.55;13.45;;;1.90;91.40;;;;;;4978618;28;20262;-76
2021/01/09 01:31:35;;;;;;;21.00;13.20;;;2.00;91.60;;;;;;4957409;28;20245;-77
2021/01/09 01:34:01;;;;;;;21.70;13.27;;;2.00;91.20;;;;;;4959972;28;20250;-74
2021/01/09 01:36:28;;;;;;;24.42;14.52;;;2.00;91.10;;;;;;4975984;28;20293;-75
2021/01/09 01:38:54;;;;;;;20.60;13.82;;;2.00;91.10;;;;;;4976190;28;20303;-75
2021/01/09 01:41:20;;;;;;;22.63;13.32;;;1.90;91.00;;;;;;4976721;28;20237;-76
2021/01/09 01:43:47;;;;;;;22.48;12.82;;;1.90;91.30;;;;;;4986234;28;20214;-75
2021/01/09 01:46:15;;;;;;;22.38;13.05;;;1.90;91.40;;;;;;4960140;28;20616;-75
2021/01/09 01:48:42;;;;;;;22.77;13.38;;;2.00;91.50;;;;;;4973239;28;20217;-75
2021/01/09 01:51:11;;;;;;;25.50;15.77;;;2.00;91.40;;;;;;4986599;28;20291;-76
2021/01/09 01:53:38;;;;;;;22.20;13.25;;;2.00;91.40;;;;;;4977800;28;20217;-77
2021/01/09 01:56:06;;;;;;;24.08;13.77;;;1.90;91.10;;;;;;4964607;28;20317;-74
2021/01/09 01:58:33;;;;;;;24.88;13.60;;;1.90;91.20;;;;;;4958098;28;20288;-76
2021/01/09 02:00:59;;;;;;;24.98;14.75;;;1.90;91.30;;;;;;4969310;28;20395;-74
2021/01/09 02:03:25;;;;;;;26.40;14.93;;;1.90;91.40;;;;;;4982510;28;20240;-75
2021/01/09 02:06:01;;;;;;;23.15;13.70;;;1.90;91.50;;;;;;4988044;28;20233;-75
2021/01/09 02:08:32;;;;;;;22.75;14.50;;;1.90;92.00;;;;;;4979056;28;20204;-73
2021/01/09 02:11:02;;;;;;;22.63;13.80;;;1.90;91.90;;;;;;4969710;28;20237;-77
2021/01/09 02:13:37;;;;;;;22.73;13.65;;;1.90;92.00;;;;;;4976559;28;20289;-75
2021/01/09 02:16:05;;;;;;;24.92;14.88;;;1.90;92.20;;;;;;4979415;28;20583;-76
2021/01/09 02:18:43;;;;;;;27.52;15.15;;;1.90;91.90;;;;;;4976147;28;20208;-76
2021/01/09 02:21:26;;;;;;;23.35;14.10;;;1.90;91.80;;;;;;4976968;28;20245;-76
2021/01/09 02:23:58;;;;;;;23.45;13.85;;;2.00;91.90;;;;;;4977898;28;20658;-75
2021/01/09 02:26:35;;;;;;;23.30;14.55;;;2.00;91.60;;;;;;4965199;28;20209;-74
2021/01/09 02:29:02;;;;;;;26.95;14.90;;;1.90;91.50;;;;;;4966917;28;20260;-76
2021/01/09 02:31:28;;;;;;;24.15;14.70;;;1.90;91.40;;;;;;4972388;28;20225;-73
2021/01/09 02:34:02;;;;;;;22.20;13.95;;;1.90;91.70;;;;;;4960817;28;20805;-76
2021/01/09 02:36:28;;;;;;;22.60;13.68;;;1.90;92.00;;;;;;4956555;28;20336;-75
2021/01/09 02:38:56;;;;;;;23.65;14.20;;;1.90;92.20;;;;;;4955284;28;20248;-74
2021/01/09 02:41:23;;;;;;;23.50;14.50;;;1.80;91.70;;;;;;4957110;28;20217;-76
2021/01/09 02:43:49;;;;;;;24.92;13.90;;;1.90;91.90;;;;;;4956795;28;20312;-73
2021/01/09 02:46:16;;;;;;;29.73;16.20;;;2.00;92.00;;;;;;4955497;28;20306;-74
2021/01/09 02:48:42;;;;;;;26.25;15.57;;;1.90;91.50;;;;;;4955534;28;20214;-76
2021/01/09 02:51:09;;;;;;;25.05;14.63;;;1.90;91.40;;;;;;4971506;28;20747;-75
2021/01/09 02:53:35;;;;;;;28.33;15.32;;;1.90;91.20;;;;;;4975224;28;20240;-73
2021/01/09 02:56:03;;;;;;;23.55;14.30;;;1.80;91.40;;;;;;4974023;28;20272;-73
2021/01/09 02:58:29;;;;;;;23.70;15.07;;;1.80;91.30;;;;;;4974088;28;20213;-74
2021/01/09 03:00:59;;;;;;;30.50;15.65;;;1.80;91.60;;;;;;4975180;28;20236;-73
2021/01/09 03:03:25;;;;;;;25.55;14.40;;;1.90;91.80;;;;;;4974415;28;20201;-72
2021/01/09 03:05:52;;;;;;;23.70;14.88;;;1.90;91.90;;;;;;4974353;28;20232;-75
2021/01/09 03:08:18;;;;;;;28.17;15.80;;;1.80;91.70;;;;;;4977077;28;20241;-79
2021/01/09 03:10:45;;;;;;;24.00;14.23;;;1.80;92.10;;;;;;4973990;28;20242;-75
2021/01/09 03:13:12;;;;;;;24.90;15.15;;;1.80;92.10;;;;;;4969836;28;20205;-75
2021/01/09 03:15:38;;;;;;;28.45;15.80;;;1.80;91.60;;;;;;4975198;28;20558;-76
2021/01/09 03:18:05;;;;;;;26.42;15.18;;;1.80;91.90;;;;;;4983162;28;20588;-74
2021/01/09 03:20:31;;;;;;;28.65;15.15;;;1.80;92.10;;;;;;4987718;28;20233;-74
2021/01/09 03:22:57;;;;;;;25.98;15.30;;;1.80;92.20;;;;;;4995257;28;20193;-74
2021/01/09 03:25:24;;;;;;;28.83;15.73;;;1.80;92.10;;;;;;4990381;28;20228;-74
2021/01/09 03:27:50;;;;;;;26.63;16.05;;;1.80;92.00;;;;;;4976961;28;20273;-72
2021/01/09 03:30:18;;;;;;;25.77;14.05;;;1.70;92.00;;;;;;4976613;28;20264;-74
2021/01/09 03:32:45;;;;;;;26.80;15.90;;;1.80;92.20;;;;;;4973430;28;20301;-77
2021/01/09 03:35:12;;;;;;;31.55;17.23;;;1.80;92.20;;;;;;4964796;28;20289;-76
2021/01/09 03:37:38;;;;;;;27.15;15.50;;;1.90;92.20;;;;;;4953502;28;20213;-74
2021/01/09 03:40:06;;;;;;;26.98;16.45;;;1.90;92.20;;;;;;4965127;28;20661;-74
2021/01/09 03:42:33;;;;;;;25.10;15.20;;;1.90;92.20;;;;;;4967245;28;20233;-76
2021/01/09 03:44:59;;;;;;;25.15;14.90;;;1.90;92.40;;;;;;4966560;28;20241;-76
2021/01/09 03:47:27;;;;;;;26.00;16.35;;;2.00;92.20;;;;;;4978468;28;20220;-74
2021/01/09 03:49:53;;;;;;;28.75;16.85;;;2.00;92.20;;;;;;4973401;28;20321;-74
2021/01/09 03:52:20;;;;;;;25.75;15.07;;;2.00;92.20;;;;;;4965492;28;20329;-71
2021/01/09 03:54:46;;;;;;;25.10;15.63;;;2.00;91.90;;;;;;4955283;28;20241;-76
2021/01/09 03:57:12;;;;;;;26.73;14.63;;;2.00;91.40;;;;;;4954806;28;20306;-76
2021/01/09 03:59:39;;;;;;;21.08;14.13;;;2.00;91.10;;;;;;4956038;28;20264;-75
2021/01/09 04:02:05;;;;;;;27.38;16.17;;;2.00;90.70;;;;;;4979822;28;20279;-73
2021/01/09 04:04:32;;;;;;;23.15;15.07;;;1.90;90.30;;;;;;4988319;28;20213;-75
2021/01/09 04:06:59;;;;;;;26.35;15.88;;;1.90;90.30;;;;;;4958556;28;20213;-74
2021/01/09 04:09:25;;;;;;;23.27;13.95;;;1.90;90.20;;;;;;4959890;28;20593;-76
2021/01/09 04:11:51;;;;;;;27.95;14.93;;;1.90;89.70;;;;;;4977556;28;20719;-77
2021/01/09 04:14:18;;;;;;;21.75;14.18;;;1.90;88.90;;;;;;4983457;28;20221;-75
2021/01/09 04:16:44;;;;;;;25.13;13.88;;;1.90;88.30;;;;;;4983206;28;20234;-74
2021/01/09 04:19:10;;;;;;;23.50;14.30;;;1.80;87.50;;;;;;4980878;28;20222;-75
2021/01/09 04:21:44;;;;;;;23.42;14.05;;;1.80;88.30;;;;;;4980794;28;20262;-80
2021/01/09 04:24:10;;;;;;;22.60;13.15;;;1.80;88.60;;;;;;4993794;28;20203;-80
2021/01/09 04:26:37;;;;;;;23.17;14.50;;;1.80;88.60;;;;;;5000069;28;20410;-81
2021/01/09 04:29:03;;;;;;;24.70;16.13;;;1.80;88.50;;;;;;4988140;28;20237;-79
2021/01/09 04:31:30;;;;;;;24.73;14.80;;;1.70;88.20;;;;;;4981072;28;20210;-78
2021/01/09 04:33:59;;;;;;;27.30;14.68;;;1.80;88.20;;;;;;4987310;28;20189;-76
2021/01/09 04:36:26;;;;;;;27.92;16.15;;;1.70;88.20;;;;;;4995054;28;20277;-75
2021/01/09 04:38:53;;;;;;;21.83;15.27;;;1.70;88.50;;;;;;4977558;28;20276;-75
2021/01/09 04:41:21;;;;;;;24.13;14.63;;;1.70;89.00;;;;;;4971551;28;20583;-76
2021/01/09 04:43:50;;;;;;;22.75;13.45;;;1.60;89.20;;;;;;4980640;28;20243;-75
2021/01/09 04:46:17;;;;;;;25.02;14.80;;;1.60;89.50;;;;;;4990598;28;20296;-74
2021/01/09 04:48:44;;;;;;;21.48;13.77;;;1.50;89.00;;;;;;4989772;28;20248;-75
2021/01/09 04:51:14;;;;;;;20.55;13.88;;;1.30;89.20;;;;;;4990446;28;20205;-74
2021/01/09 04:53:41;;;;;;;24.20;15.35;;;1.20;90.10;;;;;;4980454;28;20296;-75
2021/01/09 04:56:09;;;;;;;26.92;14.27;;;1.10;90.40;;;;;;4970434;28;20253;-75
2021/01/09 04:58:36;;;;;;;25.60;14.10;;;1.00;91.70;;;;;;4970757;28;20233;-74
2021/01/09 05:01:03;;;;;;;27.50;14.50;;;0.90;92.30;;;;;;4970036;28;20245;-76
2021/01/09 05:03:29;;;;;;;25.23;14.23;;;0.90;93.10;;;;;;4969192;28;20209;-75
2021/01/09 05:05:55;;;;;;;28.25;16.55;;;0.80;93.50;;;;;;4969588;28;20214;-74
2021/01/09 05:08:22;;;;;;;26.00;15.18;;;0.80;93.80;;;;;;4966382;28;20241;-75
2021/01/09 05:10:49;;;;;;;28.15;16.55;;;0.80;94.00;;;;;;4964733;28;20229;-74
2021/01/09 05:13:17;;;;;;;23.75;13.60;;;0.70;94.40;;;;;;4977567;28;20232;-74
2021/01/09 05:15:43;;;;;;;32.03;17.02;;;0.80;95.30;;;;;;4975474;28;20294;-74
2021/01/09 05:18:10;;;;;;;26.77;15.15;;;0.80;95.30;;;;;;4958259;28;20234;-74
2021/01/09 05:20:36;;;;;;;31.20;16.60;;;0.90;95.30;;;;;;4957934;28;20234;-73
2021/01/09 05:23:03;;;;;;;29.48;16.23;;;0.90;95.30;;;;;;4957466;28;20213;-74
2021/01/09 05:25:30;;;;;;;32.53;15.70;;;0.90;95.30;;;;;;4957118;29;20313;-75
2021/01/09 05:27:58;;;;;;;30.52;16.08;;;0.80;95.40;;;;;;4957075;28;20280;-73
2021/01/09 05:30:26;;;;;;;27.15;15.85;;;0.90;95.40;;;;;;4956168;28;20615;-72
2021/01/09 05:32:52;;;;;;;26.92;14.73;;;0.90;95.70;;;;;;4956570;28;20259;-73
2021/01/09 05:35:19;;;;;;;30.15;16.67;;;0.90;95.90;;;;;;4956040;28;20683;-73
2021/01/09 05:37:47;;;;;;;30.35;17.02;;;0.90;95.70;;;;;;4971703;28;20212;-73
2021/01/09 05:40:15;;;;;;;27.30;15.25;;;0.90;95.60;;;;;;4962727;28;20412;-73
2021/01/09 05:42:41;;;;;;;27.55;15.77;;;0.90;95.30;;;;;;4956473;28;20292;-73
2021/01/09 05:45:10;;;;;;;25.02;14.20;;;0.90;95.30;;;;;;4967905;28;20209;-74
2021/01/09 05:47:38;;;;;;;25.58;14.60;;;0.80;95.30;;;;;;4975656;28;20315;-73
2021/01/09 05:50:07;;;;;;;31.38;15.25;;;0.80;95.30;;;;;;4964927;28;20229;-75
2021/01/09 05:52:38;;;;;;;24.92;14.55;;;0.70;95.30;;;;;;4955576;28;20213;-73
2021/01/09 05:55:06;;;;;;;27.63;15.48;;;0.70;95.30;;;;;;4965537;28;20673;-75
2021/01/09 05:57:33;;;;;;;22.55;14.35;;;0.60;95.20;;;;;;4975183;28;20311;-73
2021/01/09 06:00:00;;;;;;;27.33;15.77;;;0.60;95.50;;;;;;4974539;28;20725;-72
2021/01/09 06:02:27;;;;;;;25.38;14.68;;;0.60;95.20;;;;;;4955682;28;20315;-72
2021/01/09 06:04:58;;;;;;;29.10;14.60;;;0.50;95.00;;;;;;4962121;28;20301;-71
2021/01/09 06:07:27;;;;;;;26.80;14.40;;;0.50;94.90;;;;;;4974607;28;20424;-73
2021/01/09 06:10:11;;;;;;;26.23;13.13;;;0.50;95.30;;;;;;4972679;28;20255;-73
2021/01/09 06:12:46;;;;;;;22.83;12.95;;;0.40;95.20;;;;;;4974535;28;20244;-73
2021/01/09 06:15:15;;;;;;;28.95;15.18;;;0.30;95.10;;;;;;4973030;28;20221;-74
2021/01/09 06:17:42;;;;;;;25.13;13.57;;;0.30;95.20;;;;;;4974110;28;20224;-75
2021/01/09 06:20:11;;;;;;;28.80;16.52;;;0.30;95.50;;;;;;4964449;28;20253;-73
2021/01/09 06:22:37;;;;;;;26.83;14.25;;;0.30;95.80;;;;;;4956926;28;20209;-75
2021/01/09 06:25:05;;;;;;;27.27;14.23;;;0.20;95.90;;;;;;4983163;28;20193;-76
2021/01/09 06:27:34;;;;;;;28.27;15.73;;;0.20;96.20;;;;;;4996135;28;20244;-75
2021/01/09 06:30:03;;;;;;;26.65;14.10;;;0.20;96.30;;;;;;4993210;28;20252;-71
2021/01/09 06:32:37;;;;;;;26.63;13.05;;;0.20;96.50;;;;;;4992318;28;20209;-75
2021/01/09 06:35:05;;;;;;;28.50;15.10;;;0.10;96.40;;;;;;4983428;28;20206;-76
2021/01/09 06:37:32;;;;;;;27.40;14.43;;;0.20;96.90;;;;;;4967321;28;20230;-75
2021/01/09 06:39:59;;;;;;;25.40;14.90;;;0.30;96.90;;;;;;4961408;28;20221;-75
2021/01/09 06:42:26;;;;;;;34.40;15.60;;;0.30;96.90;;;;;;4974424;28;20209;-74
2021/01/09 06:44:54;;;;;;;22.85;13.45;;;0.30;97.00;;;;;;4974216;28;20562;-75
2021/01/09 06:47:25;;;;;;;25.70;14.25;;;0.20;96.80;;;;;;4976936;28;20570;-76
2021/01/09 06:49:52;;;;;;;27.35;15.38;;;0.30;97.10;;;;;;4972080;28;20293;-75
2021/01/09 06:52:18;;;;;;;31.13;13.98;;;0.30;96.90;;;;;;4955563;28;20265;-75
2021/01/09 06:54:46;;;;;;;27.60;14.23;;;0.30;96.80;;;;;;4961933;28;20628;-74
2021/01/09 06:57:20;;;;;;;28.33;15.00;;;0.40;96.50;;;;;;4974003;28;20672;-74
2021/01/09 06:59:49;;;;;;;27.83;15.15;;;0.40;95.80;;;;;;4972260;28;20608;-74
2021/01/09 07:02:23;;;;;;;27.60;14.27;;;0.40;95.90;;;;;;4974026;28;20208;-76
2021/01/09 07:05:04;;;;;;;26.50;13.90;;;0.30;95.70;;;;;;4968601;28;20206;-74
2021/01/09 07:07:38;;;;;;;26.23;13.82;;;0.30;95.90;;;;;;4954191;28;20463;-75
2021/01/09 07:10:15;;;;;;;31.52;14.50;;;0.30;95.80;;;;;;4954668;28;20336;-76
2021/01/09 07:12:48;;;;;;;30.88;14.27;;;0.40;95.70;;;;;;4954422;28;20213;-75
2021/01/09 07:15:16;;;;;;;26.35;14.73;;;0.40;95.40;;;;;;4955162;28;20224;-75
2021/01/09 07:17:48;;;;;;;23.83;13.55;;;0.40;95.20;;;;;;4972227;28;20320;-76
2021/01/09 07:20:17;;;;;;;29.70;14.77;;;0.30;95.10;;;;;;4967021;28;20226;-73
2021/01/09 07:22:47;;;;;;;25.48;13.77;;;0.30;95.10;;;;;;4954300;28;20238;-74
2021/01/09 07:25:23;;;;;;;28.42;14.27;;;0.20;95.10;;;;;;4960693;28;20284;-73
2021/01/09 07:27:50;;;;;;;27.83;14.93;;;0.10;95.00;;;;;;4973811;28;20205;-75
2021/01/09 07:30:18;;;;;;;24.05;13.10;;;0.10;95.70;;;;;;4968712;28;20300;-74
2021/01/09 07:32:47;;;;;;;27.70;14.38;;;0.00;95.80;;;;;;4954481;28;20289;-75
2021/01/09 07:35:23;;;;;;;26.70;13.85;;;0.00;96.20;;;;;;4959219;28;20204;-73
2021/01/09 07:37:52;;;;;;;27.73;14.93;;;0.00;96.60;;;;;;4974481;28;20327;-75
2021/01/09 07:40:21;;;;;;;27.25;14.68;;;0.00;96.60;;;;;;4971473;28;20316;-73
2021/01/09 07:42:48;;;;;;;30.13;14.90;;;-0.10;96.50;;;;;;4955946;28;20278;-75
2021/01/09 07:45:16;;;;;;;25.50;13.68;;;-0.10;97.00;;;;;;4955831;28;20309;-75
2021/01/09 07:47:45;;;;;;;22.60;13.25;;;-0.10;97.30;;;;;;4968684;28;20357;-75
2021/01/09 07:50:14;;;;;;;25.17;13.48;;;-0.20;97.40;;;;;;4969848;28;20244;-76
2021/01/09 07:52:40;;;;;;;26.98;14.80;;;-0.20;97.80;;;;;;4982116;28;20197;-76
2021/01/09 07:55:08;;;;;;;29.73;15.57;;;-0.10;98.30;;;;;;4981987;28;20209;-77
2021/01/09 07:57:39;;;;;;;24.55;13.85;;;-0.10;98.40;;;;;;4987356;28;20228;-74
2021/01/09 08:00:16;;;;;;;26.38;14.43;;;-0.10;98.40;;;;;;4991490;28;20296;-75
2021/01/09 08:02:46;;;;;;;22.63;13.85;;;-0.10;98.60;;;;;;4983809;28;20293;-76
2021/01/09 08:05:15;;;;;;;29.45;14.80;;;0.00;99.00;;;;;;4987274;28;20220;-73
2021/01/09 08:07:43;;;;;;;30.85;15.57;;;0.10;99.10;;;;;;4983329;28;20588;-76
2021/01/09 08:10:29;;;;;;;29.23;15.43;;;0.20;99.40;;;;;;4993433;28;20251;-76
2021/01/09 08:12:58;;;;;;;34.33;16.83;;;0.20;99.10;;;;;;4986908;28;20233;-76
2021/01/09 08:15:26;;;;;;;36.38;17.80;;;0.30;99.00;;;;;;4977929;28;20217;-74
2021/01/09 08:17:53;;;;;;;34.97;19.25;;;0.30;99.50;;;;;;4979154;28;20520;-75
2021/01/09 08:20:20;;;;;;;32.35;15.20;;;0.40;99.20;;;;;;4994455;28;20237;-76
2021/01/09 08:22:54;;;;;;;36.30;17.70;;;0.40;99.20;;;;;;4994027;28;20202;-77
2021/01/09 08:25:22;;;;;;;36.22;18.38;;;0.40;98.70;;;;;;4994078;28;20181;-75
2021/01/09 08:27:51;;;;;;;36.50;19.35;;;0.40;98.60;;;;;;4974842;28;20205;-76
2021/01/09 08:30:23;;;;;;;34.67;16.90;;;0.40;98.60;;;;;;4974114;28;20291;-76
2021/01/09 08:32:50;;;;;;;34.50;18.73;;;0.40;98.60;;;;;;4973427;28;20300;-74
2021/01/09 08:35:17;;;;;;;36.08;17.60;;;0.40;98.80;;;;;;4974823;28;20209;-75
2021/01/09 08:37:44;;;;;;;30.13;17.33;;;0.40;99.10;;;;;;4973777;28;20233;-72
2021/01/09 08:40:19;;;;;;;35.17;19.33;;;0.40;99.00;;;;;;4974176;28;20213;-72
2021/01/09 08:43:02;;;;;;;34.20;17.70;;;0.40;99.10;;;;;;4975521;28;20299;-70
2021/01/09 08:45:47;;;;;;;32.47;18.73;;;0.40;99.30;;;;;;4970411;28;20709;-72
2021/01/09 08:48:19;;;;;;;38.55;19.25;;;0.30;99.50;;;;;;4958970;28;20212;-71
2021/01/09 08:50:50;;;;;;;37.22;18.95;;;0.30;99.80;;;;;;4960526;28;20568;-71
2021/01/09 08:53:17;;;;;;;38.33;20.40;;;0.40;99.90;;;;;;4958292;28;20290;-74
2021/01/09 08:55:43;;;;;;;35.15;20.95;;;0.40;99.90;;;;;;4972317;28;20627;-74
2021/01/09 08:58:13;;;;;;;44.30;20.30;;;0.50;99.90;;;;;;4956992;28;20685;-72
2021/01/09 09:00:40;;;;;;;39.78;18.13;;;0.40;99.90;;;;;;4960849;28;20299;-72
2021/01/09 09:03:11;;;;;;;37.80;20.50;;;0.50;99.90;;;;;;4975376;28;20275;-76
2021/01/09 09:05:39;;;;;;;40.47;19.02;;;0.50;99.90;;;;;;4974058;28;20332;-74
2021/01/09 09:08:09;;;;;;;37.67;19.83;;;0.40;99.70;;;;;;4957505;29;20214;-74
2021/01/09 09:10:36;;;;;;;33.53;20.42;;;0.30;99.80;;;;;;4958174;28;20234;-74
2021/01/09 09:13:19;;;;;;;43.40;20.45;;;0.40;99.90;;;;;;4976703;28;20209;-76
2021/01/09 09:15:47;;;;;;;48.10;21.55;;;0.30;99.80;;;;;;4973995;28;20349;-75
2021/01/09 09:18:14;;;;;;;37.03;19.92;;;0.40;99.90;;;;;;4961256;28;20218;-76
2021/01/09 09:20:45;;;;;;;40.80;19.73;;;0.50;99.90;;;;;;4971217;28;20233;-76
2021/01/09 09:23:16;;;;;;;42.97;20.38;;;0.50;99.90;;;;;;4972201;29;20292;-76
2021/01/09 09:25:43;;;;;;;42.17;20.55;;;0.60;99.90;;;;;;4960821;29;20329;-76
2021/01/09 09:28:09;;;;;;;36.60;18.73;;;0.60;99.80;;;;;;4970169;28;20221;-75
2021/01/09 09:30:36;;;;;;;39.00;20.02;;;0.70;99.70;;;;;;4971745;28;20261;-76
2021/01/09 09:33:11;;;;;;;47.33;21.70;;;0.80;99.60;;;;;;4970469;28;20229;-76
2021/01/09 09:35:39;;;;;;;42.47;19.42;;;0.80;98.70;;;;;;4967477;29;20220;-76
2021/01/09 09:38:06;;;;;;;44.90;21.30;;;0.90;98.80;;;;;;4962463;28;20226;-75
2021/01/09 09:40:34;;;;;;;42.10;21.15;;;0.90;98.40;;;;;;4960748;28;20226;-76
2021/01/09 09:43:14;;;;;;;42.38;21.35;;;0.80;97.40;;;;;;4977081;28;20244;-76
2021/01/09 09:45:55;;;;;;;39.83;19.48;;;0.90;97.20;;;;;;4978465;28;20295;-77
2021/01/09 09:48:28;;;;;;;46.40;21.02;;;0.90;97.10;;;;;;4977661;28;20205;-77
2021/01/09 09:51:03;;;;;;;37.45;19.40;;;0.90;96.30;;;;;;4980305;28;20300;-77
2021/01/09 09:53:29;;;;;;;39.28;20.20;;;1.00;96.10;;;;;;4977925;28;20236;-77
2021/01/09 09:56:10;;;;;;;42.13;20.15;;;1.20;95.90;;;;;;4982079;28;20292;-77
2021/01/09 09:58:37;;;;;;;44.42;21.33;;;1.40;95.70;;;;;;4978123;28;20198;-75
2021/01/09 10:01:15;;;;;;;38.83;18.98;;;1.50;94.50;;;;;;4977923;28;20202;-75
2021/01/09 10:03:41;;;;;;;31.73;16.08;;;1.50;91.80;;;;;;4992154;28;20245;-75
2021/01/09 10:06:08;;;;;;;30.80;16.65;;;1.80;91.20;;;;;;4991452;28;20227;-76
2021/01/09 10:08:35;;;;;;;27.48;15.90;;;1.70;87.30;;;;;;4992984;28;20323;-77
2021/01/09 10:11:02;;;;;;;27.98;15.55;;;1.90;86.10;;;;;;4993953;28;20216;-75
2021/01/09 10:13:30;;;;;;;24.98;15.38;;;1.70;83.00;;;;;;4985071;28;20214;-77
2021/01/09 10:15:56;;;;;;;28.23;16.50;;;1.70;80.70;;;;;;4975391;28;20229;-78
2021/01/09 10:18:23;;;;;;;24.63;14.75;;;1.60;81.40;;;;;;4967002;28;20228;-76
2021/01/09 10:20:50;;;;;;;28.17;15.18;;;1.90;81.00;;;;;;4980664;28;20225;-74
2021/01/09 10:23:17;;;;;;;27.80;15.18;;;1.70;78.60;;;;;;4994104;28;20212;-76
2021/01/09 10:25:44;;;;;;;27.65;14.85;;;1.80;78.70;;;;;;4988051;28;20213;-76
2021/01/09 10:28:11;;;;;;;25.80;14.25;;;1.60;78.50;;;;;;4991974;28;20193;-74
2021/01/09 10:30:38;;;;;;;26.00;13.90;;;1.50;78.40;;;;;;4990827;28;20291;-76
2021/01/09 10:33:04;;;;;;;26.27;15.27;;;1.70;78.60;;;;;;4987071;28;20205;-77
2021/01/09 10:35:31;;;;;;;24.65;14.70;;;1.70;78.60;;;;;;4985478;28;20561;-77
2021/01/09 10:37:57;;;;;;;26.80;13.80;;;1.70;78.60;;;;;;4981922;28;20233;-76
2021/01/09 10:40:24;;;;;;;33.10;17.13;;;1.80;78.70;;;;;;4961961;28;20308;-76
2021/01/09 10:42:51;;;;;;;26.00;14.65;;;2.00;77.20;;;;;;4956474;28;20642;-77
2021/01/09 10:45:17;;;;;;;25.38;14.80;;;1.90;75.20;;;;;;4957994;28;20597;-76
2021/01/09 10:47:44;;;;;;;27.08;14.80;;;1.90;75.60;;;;;;4955968;29;20210;-77
2021/01/09 10:50:11;;;;;;;25.38;14.85;;;2.00;76.70;;;;;;4967769;28;20284;-77
2021/01/09 10:52:37;;;;;;;26.75;15.73;;;2.10;76.20;;;;;;4976009;28;20219;-77
2021/01/09 10:55:05;;;;;;;24.90;14.98;;;2.30;75.40;;;;;;4981330;28;20240;-76
2021/01/09 10:57:33;;;;;;;29.13;16.35;;;2.10;73.40;;;;;;4984159;28;20341;-77
2021/01/09 10:59:59;;;;;;;22.77;13.25;;;2.30;73.40;;;;;;4983505;28;20235;-77
2021/01/09 11:02:26;;;;;;;23.15;13.82;;;2.00;71.40;;;;;;4982681;28;20251;-77
2021/01/09 11:04:52;;;;;;;21.50;14.43;;;2.00;73.10;;;;;;4974417;28;20293;-77
2021/01/09 11:07:19;;;;;;;24.15;14.70;;;2.10;71.60;;;;;;4959500;28;20249;-76
2021/01/09 11:09:45;;;;;;;24.42;14.32;;;2.00;73.00;;;;;;4958303;28;20237;-75
2021/01/09 11:12:11;;;;;;;27.55;14.45;;;2.10;72.90;;;;;;4956133;29;20249;-76
2021/01/09 11:14:39;;;;;;;19.58;12.80;;;2.20;73.00;;;;;;4964927;28;20216;-75
2021/01/09 11:17:05;;;;;;;23.70;14.05;;;2.30;71.90;;;;;;4976915;28;20296;-74
2021/01/09 11:19:32;;;;;;;26.15;14.00;;;2.10;73.50;;;;;;4981687;28;20343;-74
2021/01/09 11:22:01;;;;;;;22.50;14.18;;;2.30;73.30;;;;;;4984599;28;20239;-75
2021/01/09 11:24:29;;;;;;;25.35;13.20;;;2.10;73.00;;;;;;4976635;28;20685;-75
2021/01/09 11:26:59;;;;;;;24.95;13.75;;;2.40;72.30;;;;;;4970764;28;20209;-75
2021/01/09 11:29:26;;;;;;;25.45;14.93;;;2.50;70.90;;;;;;4974179;28;20272;-75
2021/01/09 11:31:57;;;;;;;26.02;14.35;;;2.20;73.30;;;;;;4975287;28;20239;-75
2021/01/09 11:34:24;;;;;;;21.90;13.73;;;2.40;73.50;;;;;;4972034;28;20219;-75
2021/01/09 11:36:51;;;;;;;23.83;14.68;;;2.50;70.90;;;;;;4955028;28;20675;-76
2021/01/09 11:39:17;;;;;;;28.50;14.20;;;2.40;70.80;;;;;;4955514;28;20268;-75
2021/01/09 11:41:44;;;;;;;23.92;14.18;;;2.50;70.90;;;;;;4957924;28;20281;-76
2021/01/09 11:44:10;;;;;;;27.92;15.15;;;2.70;71.70;;;;;;4967536;28;20212;-75
2021/01/09 11:46:37;;;;;;;22.75;13.68;;;2.50;70.90;;;;;;4992869;28;20229;-75
2021/01/09 11:49:04;;;;;;;29.83;15.25;;;2.60;70.40;;;;;;4981866;28;20252;-76
2021/01/09 11:51:30;;;;;;;28.33;15.75;;;2.30;72.10;;;;;;4968549;28;20624;-75
2021/01/09 11:53:57;;;;;;;28.48;15.18;;;2.30;74.30;;;;;;4973987;28;20251;-76
2021/01/09 11:56:23;;;;;;;23.33;14.23;;;2.40;73.80;;;;;;4973419;28;20272;-76
2021/01/09 11:58:50;;;;;;;23.45;13.90;;;2.60;73.80;;;;;;4973492;28;20209;-77
2021/01/09 12:01:16;;;;;;;24.38;14.40;;;2.70;72.20;;;;;;4969486;28;20726;-75
2021/01/09 12:03:43;;;;;;;23.83;13.68;;;2.70;71.00;;;;;;4969289;28;20296;-75
2021/01/09 12:06:16;;;;;;;23.63;14.30;;;2.60;71.00;;;;;;4955523;28;20724;-75
2021/01/09 12:08:43;;;;;;;28.08;14.50;;;2.70;72.20;;;;;;4954975;29;20623;-75
2021/01/09 12:11:09;;;;;;;23.67;13.13;;;2.80;72.90;;;;;;4971689;28;20213;-75
2021/01/09 12:13:42;;;;;;;23.92;13.80;;;2.70;71.00;;;;;;4955956;28;20228;-76
2021/01/09 12:16:08;;;;;;;29.00;13.95;;;2.70;71.00;;;;;;4972204;28;20235;-75
2021/01/09 12:18:35;;;;;;;24.63;13.98;;;2.30;73.80;;;;;;4975556;28;20269;-76
2021/01/09 12:21:01;;;;;;;24.67;15.13;;;2.10;74.10;;;;;;4978904;28;20205;-76
2021/01/09 12:23:28;;;;;;;22.33;13.35;;;2.20;73.60;;;;;;4975424;28;20578;-77
2021/01/09 12:25:55;;;;;;;20.65;11.07;;;2.20;73.50;;;;;;4977157;28;20285;-77
2021/01/09 12:28:22;;;;;;;21.10;13.00;;;2.20;72.90;;;;;;4977153;28;20236;-77
2021/01/09 12:30:49;;;;;;;27.83;15.35;;;2.20;71.70;;;;;;4976936;28;20625;-76
2021/01/09 12:33:16;;;;;;;24.38;13.57;;;2.10;72.20;;;;;;4977068;28;20209;-77
2021/01/09 12:35:43;;;;;;;23.65;13.25;;;2.30;72.20;;;;;;4978513;28;20214;-76
2021/01/09 12:38:10;;;;;;;22.00;14.25;;;2.50;70.90;;;;;;4979283;28;20252;-77
2021/01/09 12:40:37;;;;;;;23.80;15.00;;;2.40;70.80;;;;;;4980473;28;20232;-79